createdAt,value
2022-10-01T05:25:13.941Z,10.25
2022-10-01T05:28:22.105Z,11.75
2022-10-01T05:31:25.515Z,10.82
2022-10-01T05:34:28.717Z,10.75
2022-10-01T05:37:31.527Z,10.23
2022-10-01T05:40:34.701Z,11.07
2022-10-01T05:43:37.333Z,10.38
2022-10-01T05:46:40.588Z,10.60
2022-10-01T05:49:44.585Z,10.20
2022-10-01T05:52:53.006Z,9.85
2022-10-01T05:55:56.032Z,10.98
2022-10-01T05:58:59.593Z,11.05
2022-10-01T06:02:04.314Z,11.27
2022-10-01T06:05:07.627Z,11.45
2022-10-01T06:08:10.652Z,10.65
2022-10-01T06:11:13.732Z,10.35
2022-10-01T06:14:40.249Z,10.43
2022-10-01T06:17:47.013Z,9.88
2022-10-01T06:20:49.839Z,9.70
2022-10-01T06:23:53.556Z,9.48
2022-10-01T06:26:56.517Z,8.15
2022-10-01T06:29:59.618Z,9.45
2022-10-01T06:33:08.430Z,8.70
2022-10-01T06:36:11.449Z,9.38
2022-10-01T06:39:14.687Z,10.35
2022-10-01T06:42:17.711Z,9.48
2022-10-01T06:45:20.611Z,9.23
2022-10-01T06:48:23.826Z,10.25
2022-10-01T06:51:45.496Z,10.15
2022-10-01T06:54:48.677Z,9.57
2022-10-01T06:57:56.032Z,9.52
2022-10-01T07:01:01.567Z,9.35
2022-10-01T07:04:04.360Z,10.23
2022-10-01T07:07:17.495Z,9.88
2022-10-01T07:10:21.659Z,8.57
2022-10-01T07:13:24.691Z,9.23
2022-10-01T07:16:27.476Z,10.25
2022-10-01T07:19:31.853Z,10.32
2022-10-01T07:22:37.214Z,10.48
2022-10-01T07:47:58.676Z,8.52
2022-10-01T07:51:01.760Z,8.27
2022-10-01T07:54:05.259Z,8.82
2022-10-01T07:57:08.261Z,9.05
2022-10-01T08:00:11.561Z,9.02
2022-10-01T08:03:14.622Z,8.73
2022-10-01T08:06:25.446Z,8.70
2022-10-01T08:09:28.502Z,8.70
2022-10-01T08:12:31.604Z,7.90
2022-10-01T08:15:40.056Z,9.75
2022-10-01T08:18:44.876Z,8.65
2022-10-01T08:21:47.622Z,9.07
2022-10-01T08:24:50.888Z,9.43
2022-10-01T08:27:54.049Z,9.75
2022-10-01T08:31:09.110Z,8.68
2022-10-01T08:34:11.846Z,8.65
2022-10-01T08:37:24.904Z,9.27
2022-10-01T08:40:27.967Z,9.02
2022-10-01T08:43:32.456Z,8.82
2022-10-01T08:46:37.548Z,8.90
2022-10-01T08:49:47.323Z,9.13
2022-10-01T08:52:56.562Z,7.80
2022-10-01T08:56:02.198Z,8.88
2022-10-01T08:59:30.938Z,9.80
2022-10-01T09:02:38.235Z,9.07
2022-10-01T09:06:07.190Z,8.75
2022-10-01T09:09:41.424Z,7.72
2022-10-01T09:13:04.522Z,7.53
2022-10-01T09:16:26.955Z,7.47
2022-10-01T09:19:40.724Z,7.80
2022-10-01T09:23:12.369Z,7.43
2022-10-01T09:26:38.396Z,6.68
2022-10-01T09:29:51.701Z,5.68
2022-10-01T09:33:16.414Z,4.65
2022-10-01T09:36:40.330Z,4.05
2022-10-01T09:39:55.432Z,3.30
2022-10-01T09:42:58.537Z,3.87
2022-10-01T09:46:04.702Z,3.28
2022-10-01T09:49:20.186Z,3.30
2022-10-01T09:52:28.358Z,3.15
2022-10-01T09:55:56.215Z,2.97
2022-10-01T09:59:05.363Z,3.90
2022-10-01T10:02:36.926Z,3.85
2022-10-01T10:05:46.639Z,2.95
2022-10-01T10:08:49.431Z,3.00
2022-10-01T10:11:53.119Z,2.95
2022-10-01T10:14:59.024Z,2.90
2022-10-01T10:18:09.117Z,3.28
2022-10-01T10:21:19.571Z,3.50
2022-10-01T10:24:42.964Z,2.92
2022-10-01T10:28:05.192Z,2.60
2022-10-01T10:31:24.444Z,3.00
2022-10-01T10:34:33.848Z,3.33
2022-10-01T10:37:57.313Z,3.08
2022-10-01T10:41:01.068Z,2.70
2022-10-01T10:44:07.252Z,7.05
2022-10-01T10:47:14.556Z,3.35
2022-10-01T10:50:27.206Z,3.22
2022-10-01T10:53:46.489Z,3.67
2022-10-01T10:56:55.707Z,3.00
2022-10-01T11:00:26.195Z,3.47
2022-10-01T11:03:32.180Z,4.05
2022-10-01T11:06:35.332Z,3.40
2022-10-01T11:10:19.495Z,2.95
2022-10-01T11:14:05.114Z,3.28
2022-10-01T11:17:40.787Z,3.00
2022-10-01T11:20:56.128Z,2.83
2022-10-01T11:24:33.178Z,3.20
2022-10-01T11:27:48.410Z,3.05
2022-10-01T11:31:07.028Z,3.22
2022-10-01T11:34:12.809Z,3.97
2022-10-01T11:37:25.121Z,3.90
2022-10-01T11:40:33.963Z,2.78
2022-10-01T11:43:44.365Z,3.92
2022-10-01T11:47:09.504Z,2.83
2022-10-01T11:50:19.722Z,2.60
2022-10-01T11:53:32.331Z,2.25
2022-10-01T11:57:00.870Z,1.92
2022-10-01T12:00:10.907Z,2.30
2022-10-01T12:03:21.738Z,2.37
2022-10-01T12:06:43.492Z,2.00
2022-10-01T12:09:57.373Z,1.77
2022-10-01T12:13:22.528Z,2.00
2022-10-01T12:16:43.135Z,1.62
2022-10-01T12:19:51.443Z,1.55
2022-10-01T12:23:07.441Z,1.73
2022-10-01T12:26:16.646Z,1.65
2022-10-01T12:29:41.031Z,1.75
2022-10-01T12:32:48.556Z,2.25
2022-10-01T12:39:43.840Z,1.17
2022-10-01T12:43:53.735Z,1.60
2022-10-01T12:47:06.000Z,1.48
2022-10-01T12:50:24.805Z,1.55
2022-10-01T12:54:00.748Z,2.67
2022-10-01T12:57:11.254Z,2.80
2022-10-01T13:00:25.072Z,3.60
2022-10-01T13:03:42.629Z,5.85
2022-10-01T13:07:12.978Z,3.15
2022-10-01T13:10:25.804Z,2.25
2022-10-01T13:55:43.502Z,2.95
2022-10-01T13:58:51.314Z,3.47
2022-10-01T14:01:56.835Z,4.22
2022-10-01T14:05:28.879Z,4.37
2022-10-01T14:08:40.704Z,3.97
2022-10-01T14:12:06.946Z,5.12
2022-10-01T14:15:37.476Z,4.65
2022-10-01T14:18:44.304Z,4.55
2022-10-01T14:22:06.083Z,3.97
2022-10-01T14:25:37.005Z,4.60
